createdAt,value
2019-02-18T00:02:04.325Z,56.47
2019-02-18T00:04:35.882Z,51.70
2019-02-18T00:07:14.101Z,60.20
2019-02-18T00:09:39.217Z,56.43
2019-02-18T00:12:10.460Z,56.03
2019-02-18T00:14:42.695Z,59.37
2019-02-18T00:17:14.007Z,56.67
2019-02-18T00:19:45.387Z,57.40
2019-02-18T00:22:16.460Z,54.17
2019-02-18T00:24:47.908Z,55.73
2019-02-18T00:27:19.136Z,54.10
2019-02-18T00:29:50.555Z,52.90
2019-02-18T00:32:22.301Z,60.60
2019-02-18T00:34:53.749Z,51.70
2019-02-18T00:37:25.701Z,55.57
2019-02-18T00:39:58.763Z,52.50
2019-02-18T00:42:31.038Z,55.47
2019-02-18T00:45:02.339Z,56.33
2019-02-18T00:47:34.201Z,58.83
2019-02-18T00:50:07.321Z,52.97
2019-02-18T00:52:39.575Z,53.70
2019-02-18T00:55:12.339Z,53.00
2019-02-18T00:57:45.903Z,53.90
2019-02-18T01:00:18.785Z,54.13
2019-02-18T01:02:50.869Z,52.83
2019-02-18T01:05:22.962Z,57.50
2019-02-18T01:07:54.359Z,54.80
2019-02-18T01:10:25.542Z,48.50
2019-02-18T01:12:57.167Z,52.70
2019-02-18T01:15:28.773Z,54.70
2019-02-18T01:18:00.298Z,53.70
2019-02-18T01:23:16.466Z,59.40
2019-02-18T01:25:47.795Z,47.37
2019-02-18T01:28:18.860Z,58.27
2019-02-18T01:30:49.856Z,48.97
2019-02-18T01:33:21.587Z,49.30
2019-02-18T01:35:53.091Z,50.00
2019-02-18T01:38:25.128Z,52.87
2019-02-18T01:40:56.348Z,51.50
2019-02-18T01:43:28.262Z,50.37
2019-02-18T01:45:59.804Z,51.00
2019-02-18T01:48:30.816Z,55.40
2019-02-18T01:51:02.427Z,52.50
2019-02-18T01:53:33.945Z,44.50
2019-02-18T01:56:05.136Z,49.30
2019-02-18T01:58:36.472Z,48.70
2019-02-18T02:01:11.184Z,47.33
2019-02-18T02:03:42.758Z,47.73
2019-02-18T02:06:13.942Z,47.67
2019-02-18T02:08:45.589Z,49.43
2019-02-18T02:11:16.867Z,48.47
2019-02-18T02:13:48.538Z,48.37
2019-02-18T02:16:20.129Z,48.97
2019-02-18T02:18:52.020Z,46.33
2019-02-18T02:21:27.645Z,45.77
2019-02-18T02:24:03.435Z,46.43
2019-02-18T02:26:36.668Z,46.40
2019-02-18T02:29:09.531Z,45.80
2019-02-18T02:31:41.486Z,43.63
2019-02-18T02:34:14.111Z,47.40
2019-02-18T02:36:46.195Z,47.67
2019-02-18T02:39:18.652Z,45.53
2019-02-18T02:41:50.973Z,49.60
2019-02-18T02:44:23.265Z,45.03
2019-02-18T02:46:55.307Z,47.87
2019-02-18T02:49:27.902Z,42.50
2019-02-18T02:51:59.971Z,40.57
2019-02-18T02:54:31.678Z,46.83
2019-02-18T02:57:03.369Z,42.50
2019-02-18T02:59:35.690Z,43.70
2019-02-18T03:02:07.394Z,43.80
2019-02-18T03:04:38.416Z,45.37
2019-02-18T03:07:09.771Z,44.93
2019-02-18T03:09:41.516Z,38.50
2019-02-18T03:12:12.575Z,44.97
2019-02-18T03:14:44.296Z,36.63
2019-02-18T03:17:15.655Z,39.77
2019-02-18T03:19:46.939Z,39.03
2019-02-18T03:22:18.077Z,40.73
2019-02-18T03:25:20.966Z,38.90
2019-02-18T03:28:07.759Z,37.57
2019-02-18T03:31:03.551Z,37.00
2019-02-18T03:33:38.803Z,41.17
2019-02-18T03:36:12.273Z,38.70
2019-02-18T03:38:44.707Z,38.80
2019-02-18T03:41:17.929Z,38.03
2019-02-18T03:43:49.751Z,41.93
2019-02-18T03:46:21.345Z,43.53
2019-02-18T03:48:53.054Z,37.47
2019-02-18T03:51:24.723Z,36.33
2019-02-18T03:53:56.896Z,35.43
2019-02-18T03:56:27.788Z,39.00
2019-02-18T03:58:59.377Z,42.30
2019-02-18T04:01:30.837Z,41.13
2019-02-18T04:04:02.430Z,32.43
2019-02-18T04:06:33.750Z,39.07
2019-02-18T04:09:06.610Z,36.83
2019-02-18T04:11:42.022Z,36.53
2019-02-18T04:14:15.054Z,35.40
2019-02-18T04:16:47.415Z,40.17
2019-02-18T04:19:18.836Z,37.00
2019-02-18T04:21:50.425Z,36.23
2019-02-18T04:24:22.178Z,41.27
2019-02-18T04:26:53.378Z,38.63
2019-02-18T04:29:24.248Z,36.23
2019-02-18T04:31:56.079Z,40.90
2019-02-18T04:34:27.525Z,34.13
2019-02-18T04:36:58.500Z,38.07
2019-02-18T04:39:29.430Z,38.03
2019-02-18T04:42:00.999Z,36.33
2019-02-18T04:44:33.767Z,37.33
2019-02-18T04:47:05.224Z,48.80
2019-02-18T04:49:37.047Z,37.27
2019-02-18T04:52:08.747Z,37.87
2019-02-18T04:54:40.830Z,40.63
2019-02-18T04:57:11.920Z,37.73
2019-02-18T04:59:43.847Z,38.97
2019-02-18T05:02:15.649Z,34.33
2019-02-18T05:04:47.369Z,35.20
2019-02-18T05:07:19.353Z,39.13
2019-02-18T05:09:51.163Z,38.83
2019-02-18T05:12:23.681Z,37.40
2019-02-18T05:14:56.385Z,35.03
2019-02-18T05:17:28.681Z,37.53
2019-02-18T05:20:00.551Z,41.23
2019-02-18T05:22:32.876Z,40.03
2019-02-18T05:25:03.777Z,41.07
2019-02-18T05:27:34.533Z,40.17
2019-02-18T05:30:07.594Z,41.47
2019-02-18T05:32:38.175Z,39.63
2019-02-18T05:35:10.161Z,34.70
2019-02-18T05:37:41.514Z,40.13
2019-02-18T05:40:12.670Z,44.40
2019-02-18T05:42:43.457Z,37.20
2019-02-18T05:45:14.278Z,35.03
2019-02-18T05:47:45.341Z,37.97
2019-02-18T05:50:16.657Z,35.90
2019-02-18T05:52:47.431Z,36.47
2019-02-18T05:55:19.044Z,35.87
2019-02-18T05:57:52.106Z,34.10
2019-02-18T06:00:23.186Z,36.83
2019-02-18T06:02:53.816Z,36.73
2019-02-18T06:05:25.242Z,37.37
2019-02-18T06:07:56.300Z,40.43
2019-02-18T06:10:28.795Z,34.73
2019-02-18T06:12:59.366Z,33.83
2019-02-18T06:15:30.063Z,35.13
2019-02-18T06:18:00.899Z,39.10
2019-02-18T06:20:31.880Z,39.23
2019-02-18T06:23:02.837Z,33.30
2019-02-18T06:25:33.915Z,34.53
2019-02-18T06:28:05.012Z,33.93
2019-02-18T06:30:36.254Z,35.27
2019-02-18T06:33:07.148Z,38.27
2019-02-18T06:35:39.321Z,36.87
2019-02-18T06:38:10.481Z,33.53
2019-02-18T06:40:45.158Z,34.07
2019-02-18T06:43:17.099Z,36.53
2019-02-18T06:46:02.270Z,34.77
2019-02-18T06:48:35.125Z,37.97
2019-02-18T06:51:06.248Z,32.53
2019-02-18T06:53:38.002Z,33.53
2019-02-18T06:56:09.205Z,34.77
2019-02-18T06:58:45.200Z,31.03
2019-02-18T07:01:20.861Z,31.03
2019-02-18T07:03:58.745Z,34.70
2019-02-18T07:06:37.432Z,35.07
2019-02-18T07:09:15.600Z,34.93
2019-02-18T07:11:48.102Z,33.80
2019-02-18T07:14:19.019Z,37.27
2019-02-18T07:16:49.710Z,37.80
2019-02-18T07:19:20.633Z,38.43
2019-02-18T07:21:52.333Z,36.20
2019-02-18T07:27:08.522Z,36.07
2019-02-18T07:29:39.594Z,33.07
2019-02-18T07:32:12.905Z,34.60
2019-02-18T07:34:44.618Z,34.30
2019-02-18T07:37:14.966Z,33.53
2019-02-18T07:39:45.409Z,31.13
2019-02-18T07:42:16.608Z,34.53
2019-02-18T07:44:46.911Z,44.00
2019-02-18T07:47:19.703Z,34.20
2019-02-18T07:49:50.893Z,37.90
2019-02-18T07:52:21.351Z,32.00
2019-02-18T07:54:52.995Z,32.30
2019-02-18T07:57:25.619Z,31.93
2019-02-18T07:59:56.069Z,33.93
2019-02-18T08:02:27.721Z,31.30
2019-02-18T08:05:02.230Z,33.10
2019-02-18T08:07:33.234Z,33.90
2019-02-18T08:10:12.220Z,38.27
2019-02-18T08:12:38.679Z,34.90
2019-02-18T08:15:10.758Z,35.67
2019-02-18T08:17:42.536Z,33.40
2019-02-18T08:20:13.999Z,31.23
2019-02-18T08:22:45.142Z,35.23
2019-02-18T08:25:16.609Z,32.40
2019-02-18T08:27:47.644Z,33.53
2019-02-18T08:30:18.773Z,32.77
2019-02-18T08:32:50.734Z,32.17
2019-02-18T08:35:22.732Z,34.20
2019-02-18T08:37:53.326Z,31.57
2019-02-18T08:40:23.653Z,30.43
2019-02-18T08:42:54.535Z,34.50
2019-02-18T08:45:24.995Z,35.17
2019-02-18T08:47:56.341Z,32.93
2019-02-18T08:50:27.603Z,34.00
2019-02-18T08:52:58.232Z,31.43
2019-02-18T08:55:28.964Z,31.83
2019-02-18T08:58:01.053Z,31.27
2019-02-18T09:00:32.573Z,34.37
2019-02-18T09:03:03.663Z,31.40
2019-02-18T09:05:34.716Z,34.43
2019-02-18T09:08:05.525Z,33.17
2019-02-18T09:10:36.655Z,32.60
2019-02-18T09:13:07.424Z,30.13
2019-02-18T09:15:38.839Z,34.10
2019-02-18T09:18:09.912Z,31.67
2019-02-18T09:20:40.507Z,30.23
2019-02-18T09:23:18.872Z,33.27
2019-02-18T09:25:52.334Z,30.77
2019-02-18T09:28:23.462Z,34.70
2019-02-18T09:30:55.441Z,29.50
2019-02-18T09:33:26.753Z,35.60
2019-02-18T09:35:57.349Z,32.23
2019-02-18T09:38:28.955Z,28.30
2019-02-18T09:40:59.587Z,28.67
2019-02-18T09:43:30.414Z,28.77
2019-02-18T09:46:01.310Z,32.03
2019-02-18T09:48:32.073Z,30.73
2019-02-18T09:51:03.123Z,30.13
2019-02-18T09:53:33.678Z,32.13
2019-02-18T09:56:04.155Z,31.93
2019-02-18T09:58:35.799Z,28.33
2019-02-18T10:01:06.385Z,28.60
2019-02-18T10:03:37.352Z,31.10
2019-02-18T10:06:08.454Z,30.20
2019-02-18T10:08:39.307Z,28.03
2019-02-18T10:11:09.621Z,27.40
2019-02-18T10:13:40.353Z,29.27
2019-02-18T10:16:11.229Z,31.67
2019-02-18T10:18:42.086Z,27.77
2019-02-18T10:21:13.379Z,29.63
2019-02-18T10:23:44.506Z,27.07
2019-02-18T10:26:15.381Z,29.73
2019-02-18T10:28:46.081Z,25.60
2019-02-18T10:31:16.309Z,35.93
2019-02-18T10:33:46.981Z,28.77
2019-02-18T10:36:18.176Z,33.27
2019-02-18T10:38:52.979Z,26.50
2019-02-18T10:41:27.826Z,23.63
2019-02-18T10:44:11.152Z,25.57
2019-02-18T10:46:47.768Z,31.80
2019-02-18T10:49:22.034Z,27.67
2019-02-18T10:51:57.745Z,35.93
2019-02-18T10:54:33.905Z,26.00
2019-02-18T10:57:06.110Z,24.83
2019-02-18T10:59:39.931Z,27.37
2019-02-18T11:02:13.075Z,32.77
2019-02-18T11:04:44.233Z,27.53
2019-02-18T11:07:15.537Z,25.47
2019-02-18T11:09:45.914Z,28.63
2019-02-18T11:12:17.602Z,27.23
2019-02-18T11:14:48.525Z,27.37
2019-02-18T11:17:19.366Z,31.60
2019-02-18T11:19:51.392Z,26.37
2019-02-18T11:22:22.459Z,26.23
2019-02-18T11:24:53.399Z,24.33
2019-02-18T11:27:25.210Z,24.60
2019-02-18T11:29:56.999Z,22.67
2019-02-18T11:32:28.424Z,22.97
2019-02-18T11:35:00.633Z,26.73
2019-02-18T11:37:31.904Z,26.20
2019-02-18T11:40:02.547Z,30.73
2019-02-18T11:42:33.635Z,24.13
2019-02-18T11:45:07.529Z,25.17
2019-02-18T11:47:38.617Z,24.53
2019-02-18T11:50:11.624Z,24.40
2019-02-18T11:52:42.548Z,28.40
2019-02-18T11:55:14.269Z,23.67
2019-02-18T11:57:46.403Z,25.23
2019-02-18T12:00:19.235Z,26.87
2019-02-18T12:03:02.344Z,24.10
2019-02-18T12:05:28.526Z,26.20
2019-02-18T12:07:59.002Z,25.50
2019-02-18T12:10:30.758Z,30.47
2019-02-18T12:13:05.448Z,30.40
2019-02-18T12:15:36.407Z,27.10
2019-02-18T12:18:07.260Z,26.10
2019-02-18T12:20:39.195Z,26.57
2019-02-18T12:23:10.219Z,26.07
2019-02-18T12:25:40.980Z,25.10
2019-02-18T12:28:11.539Z,27.37
2019-02-18T12:30:42.462Z,25.10
2019-02-18T12:33:14.526Z,24.67
2019-02-18T12:35:46.785Z,27.97
2019-02-18T12:38:18.499Z,30.87
2019-02-18T12:40:49.952Z,26.57
2019-02-18T12:43:21.887Z,30.50
2019-02-18T12:45:53.526Z,27.67
2019-02-18T12:48:24.233Z,29.97
2019-02-18T12:50:55.179Z,36.83
2019-02-18T12:53:26.241Z,31.20
2019-02-18T12:55:58.114Z,29.30
2019-02-18T12:58:32.872Z,28.93
2019-02-18T13:01:06.577Z,27.83
2019-02-18T13:03:39.131Z,27.03
2019-02-18T13:06:13.569Z,29.00
2019-02-18T13:08:47.070Z,23.50
2019-02-18T13:11:19.858Z,24.37
2019-02-18T13:13:53.839Z,24.87
2019-02-18T13:16:25.965Z,26.20
2019-02-18T13:18:57.288Z,27.57
2019-02-18T13:21:30.321Z,24.70
2019-02-18T13:24:02.639Z,27.73
2019-02-18T13:26:34.181Z,28.17
2019-02-18T13:29:05.716Z,24.00
2019-02-18T13:31:36.478Z,29.97
2019-02-18T13:34:07.528Z,23.53
2019-02-18T13:36:39.084Z,28.93
2019-02-18T13:39:10.911Z,25.70
2019-02-18T13:41:42.632Z,35.87
2019-02-18T13:44:13.628Z,30.03
2019-02-18T13:46:44.562Z,29.23
2019-02-18T13:49:16.381Z,29.27
2019-02-18T13:51:56.223Z,26.23
2019-02-18T13:54:21.348Z,35.87
2019-02-18T13:56:52.917Z,27.50
2019-02-18T13:59:23.785Z,28.57
2019-02-18T14:01:54.730Z,27.30
2019-02-18T14:04:25.982Z,27.17
2019-02-18T14:06:57.348Z,26.17
2019-02-18T14:09:28.308Z,31.37
2019-02-18T14:12:15.915Z,22.30
2019-02-18T14:14:43.621Z,29.83
2019-02-18T14:17:22.788Z,30.93
2019-02-18T14:20:01.293Z,30.93
2019-02-18T14:22:35.416Z,30.10
2019-02-18T14:25:08.472Z,26.47
2019-02-18T14:27:40.358Z,32.20
2019-02-18T14:30:13.620Z,28.03
2019-02-18T14:32:45.603Z,25.83
2019-02-18T14:35:18.389Z,34.30
2019-02-18T14:37:50.501Z,30.87
2019-02-18T14:40:23.771Z,27.40
2019-02-18T14:42:59.934Z,27.33
2019-02-18T14:45:32.479Z,26.70
2019-02-18T14:48:04.821Z,23.87
2019-02-18T14:50:39.555Z,24.10
2019-02-18T14:53:14.931Z,26.80
2019-02-18T14:55:53.360Z,24.50
2019-02-18T14:58:38.596Z,23.97
2019-02-18T15:01:16.126Z,24.77
2019-02-18T15:03:51.453Z,24.23
2019-02-18T15:06:35.555Z,23.13
2019-02-18T15:09:14.401Z,27.63
2019-02-18T15:11:50.199Z,23.90
2019-02-18T15:14:33.385Z,25.40
2019-02-18T15:17:12.722Z,25.00
2019-02-18T15:19:44.474Z,29.93
2019-02-18T15:22:17.113Z,21.23
2019-02-18T15:24:48.726Z,27.03
2019-02-18T15:27:20.187Z,27.80
2019-02-18T15:29:51.739Z,27.60
2019-02-18T15:32:22.838Z,26.80
2019-02-18T15:34:54.528Z,26.50
2019-02-18T15:37:26.207Z,25.60
2019-02-18T15:39:58.073Z,22.37
2019-02-18T15:42:30.082Z,21.97
2019-02-18T15:45:01.487Z,26.53
2019-02-18T15:47:33.357Z,27.40
2019-02-18T15:50:07.242Z,23.17
2019-02-18T15:52:38.688Z,28.53
2019-02-18T15:55:10.570Z,23.30
2019-02-18T15:57:45.505Z,24.33
2019-02-18T16:00:22.940Z,21.20
2019-02-18T16:02:56.968Z,26.97
2019-02-18T16:05:28.767Z,26.17
2019-02-18T16:08:00.580Z,26.43
2019-02-18T16:10:31.411Z,24.20
2019-02-18T16:13:03.795Z,25.17
2019-02-18T16:15:34.597Z,23.53
2019-02-18T16:18:06.354Z,26.17
2019-02-18T16:20:38.752Z,30.00
2019-02-18T16:23:09.974Z,27.53
2019-02-18T16:25:42.151Z,23.93
2019-02-18T16:28:13.788Z,29.37
2019-02-18T16:30:45.948Z,31.70
2019-02-18T16:33:19.615Z,31.37
2019-02-18T16:35:52.176Z,29.40
2019-02-18T16:38:25.133Z,26.53
2019-02-18T16:40:57.954Z,27.90
2019-02-18T16:43:29.645Z,25.80
2019-02-18T16:46:02.427Z,29.63
2019-02-18T16:48:34.151Z,27.33
2019-02-18T16:51:05.542Z,30.27
2019-02-18T16:53:38.076Z,31.73
2019-02-18T16:56:09.403Z,30.60
2019-02-18T16:58:41.393Z,34.30
2019-02-18T17:01:13.035Z,32.50
2019-02-18T17:03:44.250Z,36.03
2019-02-18T17:06:15.355Z,37.07
2019-02-18T17:08:47.778Z,32.37
2019-02-18T17:11:19.477Z,33.90
2019-02-18T17:13:51.474Z,32.00
2019-02-18T17:16:25.115Z,39.27
2019-02-18T17:18:56.816Z,32.67
2019-02-18T17:21:29.191Z,32.43
2019-02-18T17:24:01.967Z,33.20
2019-02-18T17:26:33.299Z,31.50
2019-02-18T17:29:05.334Z,33.53
2019-02-18T17:31:37.078Z,35.83
2019-02-18T17:34:09.730Z,33.27
2019-02-18T17:36:42.505Z,31.20
2019-02-18T17:39:14.315Z,33.90
2019-02-18T17:41:47.259Z,40.83
2019-02-18T17:44:20.361Z,43.37
2019-02-18T17:46:52.136Z,38.30
2019-02-18T17:49:23.379Z,38.87
2019-02-18T17:51:56.659Z,42.97
2019-02-18T17:54:28.373Z,38.87
2019-02-18T17:57:00.965Z,39.50
2019-02-18T17:59:32.219Z,81.43
2019-02-18T18:02:04.850Z,63.47
2019-02-18T18:04:37.618Z,49.67
2019-02-18T18:07:09.413Z,43.07
2019-02-18T18:09:42.439Z,41.27
2019-02-18T18:12:14.578Z,38.80
2019-02-18T18:14:47.185Z,43.07
2019-02-18T18:17:21.553Z,41.20
2019-02-18T18:19:54.503Z,35.83
2019-02-18T18:22:27.003Z,36.83
2019-02-18T18:24:59.057Z,35.60
2019-02-18T18:27:30.927Z,44.03
2019-02-18T18:30:04.934Z,37.83
2019-02-18T18:32:36.728Z,35.03
2019-02-18T18:35:10.487Z,36.87
2019-02-18T18:37:41.815Z,46.03
2019-02-18T18:40:20.955Z,40.83
2019-02-18T18:42:56.927Z,58.53
2019-02-18T18:48:51.517Z,34.50
2019-02-18T18:51:23.026Z,37.20
2019-02-18T18:53:54.801Z,35.53
2019-02-18T18:56:28.158Z,36.20
2019-02-18T18:59:00.162Z,40.27
2019-02-18T19:01:45.369Z,35.53
2019-02-18T19:04:19.750Z,34.83
2019-02-18T19:06:52.431Z,39.83
2019-02-18T19:09:23.660Z,38.77
2019-02-18T19:11:54.947Z,41.83
2019-02-18T19:14:26.628Z,37.73
2019-02-18T19:16:57.440Z,40.17
2019-02-18T19:19:28.869Z,48.77
2019-02-18T19:22:00.044Z,37.27
2019-02-18T19:24:31.009Z,37.90
2019-02-18T19:27:04.064Z,42.30
2019-02-18T19:29:36.500Z,37.13
2019-02-18T19:32:09.078Z,39.07
2019-02-18T19:34:41.563Z,37.03
2019-02-18T19:37:12.454Z,35.13
2019-02-18T19:39:42.949Z,34.47
2019-02-18T19:42:16.493Z,36.87
2019-02-18T19:44:49.796Z,34.80
2019-02-18T19:47:21.473Z,34.47
2019-02-18T19:49:52.991Z,34.80
2019-02-18T19:52:26.208Z,37.87
2019-02-18T19:54:57.582Z,29.23
2019-02-18T19:57:30.169Z,35.13
2019-02-18T20:00:01.925Z,32.13
2019-02-18T20:02:34.871Z,30.63
2019-02-18T20:05:08.930Z,31.40
2019-02-18T20:07:40.429Z,31.70
2019-02-18T20:10:13.029Z,34.87
2019-02-18T20:12:46.124Z,33.50
2019-02-18T20:15:20.490Z,32.43
2019-02-18T20:17:51.425Z,34.87
2019-02-18T20:20:23.022Z,31.70
2019-02-18T20:22:54.291Z,33.77
2019-02-18T20:25:26.113Z,34.07
2019-02-18T20:27:59.821Z,31.57
2019-02-18T20:30:34.144Z,34.23
2019-02-18T20:33:07.554Z,35.10
2019-02-18T20:35:39.094Z,32.27
2019-02-18T20:38:11.621Z,34.07
2019-02-18T20:40:43.587Z,31.63
2019-02-18T20:43:15.154Z,32.37
2019-02-18T20:45:46.941Z,32.50
2019-02-18T20:48:17.848Z,31.80
2019-02-18T20:50:49.382Z,32.63
2019-02-18T20:53:20.626Z,32.90
2019-02-18T20:55:52.617Z,33.33
2019-02-18T20:58:23.571Z,33.57
2019-02-18T21:00:55.436Z,32.63
2019-02-18T21:03:26.401Z,34.37
2019-02-18T21:05:57.656Z,39.33
2019-02-18T21:08:29.349Z,31.97
2019-02-18T21:11:03.786Z,34.17
2019-02-18T21:13:39.428Z,34.40
2019-02-18T21:16:10.696Z,34.00
2019-02-18T21:18:42.348Z,35.13
2019-02-18T21:21:14.434Z,32.87
2019-02-18T21:23:45.412Z,37.37
2019-02-18T21:26:19.459Z,36.50
2019-02-18T21:28:51.241Z,32.50
2019-02-18T21:31:27.558Z,37.47
2019-02-18T21:37:33.529Z,35.83
2019-02-18T21:40:18.963Z,39.43
2019-02-18T21:42:51.138Z,35.97
2019-02-18T21:45:23.131Z,35.47
2019-02-18T21:47:56.440Z,39.17
2019-02-18T21:50:29.564Z,37.53
2019-02-18T21:53:02.588Z,40.07
2019-02-18T21:55:35.914Z,36.90
2019-02-18T21:58:09.076Z,39.67
2019-02-18T22:00:40.559Z,39.53
2019-02-18T22:03:12.004Z,37.00
2019-02-18T22:05:43.109Z,35.70
2019-02-18T22:08:14.117Z,34.93
2019-02-18T22:10:44.971Z,36.10
2019-02-18T22:13:16.013Z,40.00
2019-02-18T22:15:47.060Z,38.57
2019-02-18T22:18:17.790Z,40.23
2019-02-18T22:20:49.871Z,38.97
2019-02-18T22:23:21.465Z,36.43
2019-02-18T22:25:52.560Z,38.83
2019-02-18T22:28:24.088Z,37.87
2019-02-18T22:30:54.883Z,37.37
2019-02-18T22:33:25.922Z,36.30
2019-02-18T22:35:56.702Z,37.87
2019-02-18T22:38:28.122Z,40.77
2019-02-18T22:40:59.062Z,37.80
2019-02-18T22:43:31.183Z,37.97
2019-02-18T22:46:04.498Z,42.37
2019-02-18T22:48:36.722Z,39.83
2019-02-18T22:51:08.670Z,46.07
2019-02-18T22:53:42.575Z,40.73
2019-02-18T22:56:13.382Z,44.97
2019-02-18T22:58:47.239Z,39.93
2019-02-18T23:01:22.036Z,43.67
2019-02-18T23:03:54.890Z,45.67
2019-02-18T23:06:30.645Z,42.23
2019-02-18T23:09:04.834Z,46.50
2019-02-18T23:11:36.647Z,41.00
2019-02-18T23:14:08.558Z,37.60
2019-02-18T23:16:40.594Z,36.73
2019-02-18T23:19:13.084Z,39.03
2019-02-18T23:21:46.202Z,35.20
2019-02-18T23:24:19.489Z,36.30
2019-02-18T23:26:52.188Z,38.07
2019-02-18T23:29:25.449Z,37.03
2019-02-18T23:31:58.690Z,36.00
2019-02-18T23:34:31.272Z,38.53
2019-02-18T23:43:38.457Z,33.80
2019-02-18T23:46:10.425Z,34.03
2019-02-18T23:48:45.636Z,38.10
2019-02-18T23:51:19.676Z,35.50
2019-02-18T23:53:52.261Z,36.83
2019-02-18T23:56:23.602Z,35.13
2019-02-18T23:58:56.176Z,35.30
